Time;durP1;ratioP1;P1;durP2;ratioP2;P2;SDS_P1;SDS_P2;PMS_P1;PMS_P2;Temp;Humidity;BMP_temperature;BMP_pressure;BME280_temperature;BME280_humidity;BME280_pressure;Samples;Min_cycle;Max_cycle;Signal;HPM_P1;HPM_P2
2022/06/18 00:02:20;;;;;;;14.13;5.80;;;;;;;;;;5074138;28;20045;-70
2022/06/18 00:04:47;;;;;;;12.88;5.85;;;;;;;;;;5075121;28;20067;-70
2022/06/18 00:07:15;;;;;;;13.80;5.70;;;;;;;;;;5077343;28;20051;-70
2022/06/18 00:09:42;;;;;;;11.55;5.53;;;;;;;;;;5074714;28;20105;-70
2022/06/18 00:15:19;;;;;;;13.15;5.78;;;;;;;;;;5094023;28;20497;-70
2022/06/18 00:17:46;;;;;;;16.25;5.80;;;;;;;;;;5092765;28;20048;-70
2022/06/18 00:20:13;;;;;;;11.45;5.82;;;;;;;;;;5084560;28;20051;-70
2022/06/18 00:22:39;;;;;;;18.27;5.88;;;;;;;;;;5072283;28;20044;-71
2022/06/18 00:25:24;;;;;;;14.07;5.88;;;;;;;;;;5065504;28;20484;-70
2022/06/18 00:27:50;;;;;;;15.60;6.07;;;;;;;;;;5084263;28;20396;-69
2022/06/18 00:30:18;;;;;;;13.52;6.45;;;;;;;;;;5076163;28;20048;-69
2022/06/18 00:32:44;;;;;;;14.93;6.45;;;;;;;;;;5073591;28;20257;-70
2022/06/18 00:35:11;;;;;;;;;;;;;;;;;;5073146;28;20098;-70
2022/06/18 00:37:38;;;;;;;15.70;6.28;;;;;;;;;;5072888;28;19927;-70
2022/06/18 00:40:11;;;;;;;13.80;6.03;;;;;;;;;;5072494;28;20049;-70
2022/06/18 00:42:38;;;;;;;13.15;6.80;;;;;;;;;;5086416;28;20132;-69
2022/06/18 00:45:05;;;;;;;12.52;6.28;;;;;;;;;;5082880;28;20059;-69
2022/06/18 00:47:37;;;;;;;15.85;7.30;;;;;;;;;;5073821;28;20048;-69
2022/06/18 00:50:06;;;;;;;14.25;7.00;;;;;;;;;;5088829;28;20094;-69
2022/06/18 00:52:32;;;;;;;13.55;6.95;;;;;;;;;;5071345;28;20048;-69
2022/06/18 00:54:58;;;;;;;;;;;;;;;;;;5075283;28;20123;-69
2022/06/18 00:57:31;;;;;;;15.88;7.43;;;;;;;;;;5078889;28;19920;-69
2022/06/18 01:00:05;;;;;;;12.50;6.47;;;;;;;;;;5055463;28;20408;-69
2022/06/18 01:02:34;;;;;;;13.02;6.03;;;;;;;;;;5073172;28;20049;-70
2022/06/18 01:05:00;;;;;;;12.45;6.55;;;;;;;;;;5084816;28;20128;-69
2022/06/18 01:07:26;;;;;;;;;;;;;;;;;;5073125;28;20048;-69
2022/06/18 01:09:53;;;;;;;14.57;7.43;;;;;;;;;;5078198;28;19920;-69
2022/06/18 01:12:19;;;;;;;14.07;7.38;;;;;;;;;;5091241;28;20123;-69
2022/06/18 01:14:46;;;;;;;14.70;7.45;;;;;;;;;;5084049;28;20090;-69
2022/06/18 01:17:12;;;;;;;13.20;7.07;;;;;;;;;;5064280;28;20139;-70
2022/06/18 01:19:38;;;;;;;;;;;;;;;;;;5082296;28;20044;-69
2022/06/18 01:22:18;;;;;;;13.15;7.38;;;;;;;;;;5085629;28;19977;-69
2022/06/18 01:24:46;;;;;;;16.48;8.43;;;;;;;;;;5083195;28;20040;-69
2022/06/18 01:27:12;;;;;;;14.85;8.02;;;;;;;;;;5075181;28;20093;-69
2022/06/18 01:29:39;;;;;;;15.60;8.45;;;;;;;;;;5075927;28;20052;-69
2022/06/18 01:32:07;;;;;;;14.75;8.40;;;;;;;;;;5072966;28;20088;-69
2022/06/18 01:34:34;;;;;;;15.93;7.78;;;;;;;;;;5057333;28;20051;-69
2022/06/18 01:37:01;;;;;;;16.50;8.55;;;;;;;;;;5072644;28;20048;-69
2022/06/18 01:39:31;;;;;;;17.58;9.13;;;;;;;;;;5050559;28;20084;-69
2022/06/18 01:42:17;;;;;;;17.50;9.18;;;;;;;;;;5077184;28;20039;-69
2022/06/18 01:44:46;;;;;;;15.40;9.40;;;;;;;;;;5071975;28;20143;-69
2022/06/18 01:47:21;;;;;;;15.68;8.48;;;;;;;;;;5073498;28;20048;-69
2022/06/18 01:49:49;;;;;;;16.70;8.65;;;;;;;;;;5078281;28;20044;-69
2022/06/18 01:52:18;;;;;;;13.45;7.93;;;;;;;;;;5072261;28;20083;-69
2022/06/18 01:54:49;;;;;;;18.42;9.18;;;;;;;;;;5086104;28;20050;-69
2022/06/18 01:57:18;;;;;;;19.98;9.60;;;;;;;;;;5087433;28;20528;-69
2022/06/18 01:59:47;;;;;;;17.05;10.02;;;;;;;;;;5071395;28;20162;-69
2022/06/18 02:02:13;;;;;;;19.00;9.38;;;;;;;;;;5051037;28;20476;-70
2022/06/18 02:04:39;;;;;;;15.77;9.18;;;;;;;;;;5074789;28;20098;-69
2022/06/18 02:07:05;;;;;;;;;;;;;;;;;;5071480;28;20044;-69
2022/06/18 02:09:37;;;;;;;17.45;10.80;;;;;;;;;;5071525;28;20042;-70
2022/06/18 02:12:07;;;;;;;22.60;12.25;;;;;;;;;;5078007;28;20040;-69
2022/06/18 02:14:33;;;;;;;22.60;12.00;;;;;;;;;;5084089;28;20456;-69
2022/06/18 02:17:01;;;;;;;22.58;12.32;;;;;;;;;;5072903;28;20431;-68
2022/06/18 02:19:28;;;;;;;20.75;11.57;;;;;;;;;;5081851;28;20101;-68
2022/06/18 02:21:56;;;;;;;20.55;12.02;;;;;;;;;;5080818;28;20374;-69
2022/06/18 02:24:22;;;;;;;23.77;12.00;;;;;;;;;;5071001;28;20121;-71
2022/06/18 02:26:48;;;;;;;23.20;12.93;;;;;;;;;;5042390;28;20048;-70
2022/06/18 02:29:18;;;;;;;19.17;11.82;;;;;;;;;;5086088;28;20151;-69
2022/06/18 02:31:45;;;;;;;23.40;13.35;;;;;;;;;;5087623;28;20098;-68
2022/06/18 02:34:14;;;;;;;23.48;13.38;;;;;;;;;;5070496;28;20478;-69
2022/06/18 02:36:41;;;;;;;18.75;12.90;;;;;;;;;;5070702;28;20048;-69
2022/06/18 02:39:25;;;;;;;23.45;12.95;;;;;;;;;;5070058;28;20051;-69
2022/06/18 02:41:57;;;;;;;21.70;13.70;;;;;;;;;;5066824;28;20123;-70
2022/06/18 02:44:23;;;;;;;20.63;13.90;;;;;;;;;;5068445;28;20146;-70
2022/06/18 02:46:49;;;;;;;20.48;14.43;;;;;;;;;;5074624;28;20052;-69
2022/06/18 02:49:15;;;;;;;;;;;;;;;;;;5071917;28;20071;-70
2022/06/18 02:51:41;;;;;;;23.63;14.77;;;;;;;;;;5079677;28;19923;-70
2022/06/18 02:54:08;;;;;;;22.85;15.15;;;;;;;;;;5085311;28;20131;-70
2022/06/18 02:56:34;;;;;;;23.25;15.38;;;;;;;;;;5083228;28;20040;-69
2022/06/18 02:59:04;;;;;;;24.85;15.43;;;;;;;;;;5080146;28;20054;-70
2022/06/18 03:01:32;;;;;;;25.40;15.90;;;;;;;;;;5088900;28;20422;-69
2022/06/18 03:03:59;;;;;;;30.60;16.85;;;;;;;;;;5076410;28;20099;-69
2022/06/18 03:06:27;;;;;;;28.75;16.70;;;;;;;;;;5070436;28;20076;-70
2022/06/18 03:08:53;;;;;;;28.10;16.38;;;;;;;;;;5074564;28;20147;-70
2022/06/18 03:14:04;;;;;;;24.83;16.13;;;;;;;;;;5076907;28;19920;-69
2022/06/18 03:16:31;;;;;;;25.27;16.42;;;;;;;;;;5087861;28;20056;-69
2022/06/18 03:18:58;;;;;;;25.00;16.95;;;;;;;;;;5089842;28;20097;-69
2022/06/18 03:21:42;;;;;;;31.25;17.35;;;;;;;;;;5092296;28;20047;-68
2022/06/18 03:24:09;;;;;;;27.77;17.58;;;;;;;;;;5090485;28;20051;-69
2022/06/18 03:26:35;;;;;;;27.20;17.10;;;;;;;;;;5087124;28;20050;-70
2022/06/18 03:29:01;;;;;;;27.63;17.40;;;;;;;;;;5054903;28;20627;-70
2022/06/18 03:31:28;;;;;;;24.63;17.67;;;;;;;;;;5090756;28;20055;-69
2022/06/18 03:33:54;;;;;;;29.13;18.30;;;;;;;;;;5089055;28;20051;-68
2022/06/18 03:36:20;;;;;;;;;;;;;;;;;;5071340;28;20049;-68
2022/06/18 03:38:46;;;;;;;28.25;18.88;;;;;;;;;;5089297;28;20386;-69
2022/06/18 03:41:13;;;;;;;28.45;20.60;;;;;;;;;;5056930;28;20157;-69
2022/06/18 03:43:39;;;;;;;30.70;19.95;;;;;;;;;;5076821;28;20123;-69
2022/06/18 03:46:08;;;;;;;;;;;;;;;;;;5075373;28;20060;-69
2022/06/18 03:48:52;;;;;;;34.88;20.67;;;;;;;;;;5073777;28;19920;-69
2022/06/18 03:51:19;;;;;;;34.40;23.02;;;;;;;;;;5078395;28;20123;-69
2022/06/18 03:53:45;;;;;;;35.60;22.10;;;;;;;;;;5091439;28;20154;-68
2022/06/18 03:56:13;;;;;;;34.42;23.10;;;;;;;;;;5078382;28;20053;-68
2022/06/18 03:58:39;;;;;;;33.92;23.60;;;;;;;;;;5076771;28;20051;-68
2022/06/18 04:01:05;;;;;;;31.35;22.20;;;;;;;;;;5080467;28;20114;-68
2022/06/18 04:03:31;;;;;;;;;;;;;;;;;;5081149;28;20076;-68
2022/06/18 04:05:58;;;;;;;38.08;24.23;;;;;;;;;;5077849;28;19990;-68
2022/06/18 04:08:24;;;;;;;;;;;;;;;;;;5074954;28;20106;-68
2022/06/18 04:10:50;;;;;;;40.40;23.60;;;;;;;;;;5059336;28;19920;-68
2022/06/18 04:13:16;;;;;;;40.95;23.92;;;;;;;;;;5054528;28;20084;-68
2022/06/18 04:15:42;;;;;;;38.47;23.42;;;;;;;;;;5087195;28;20046;-68
2022/06/18 04:18:10;;;;;;;37.13;23.35;;;;;;;;;;5086126;28;20105;-68
2022/06/18 04:20:37;;;;;;;38.53;25.08;;;;;;;;;;5088451;28;20058;-68
2022/06/18 04:23:03;;;;;;;38.63;24.75;;;;;;;;;;5072397;28;20059;-68
2022/06/18 04:25:29;;;;;;;36.33;23.02;;;;;;;;;;5072063;28;20049;-68
2022/06/18 04:27:59;;;;;;;;;;;;;;;;;;5086094;28;20376;-68
2022/06/18 04:30:26;;;;;;;34.75;24.35;;;;;;;;;;5072698;28;19924;-68
2022/06/18 04:32:53;;;;;;;32.22;23.63;;;;;;;;;;5069981;28;20051;-68
2022/06/18 04:35:19;;;;;;;39.28;24.02;;;;;;;;;;5054678;28;20334;-68
2022/06/18 04:37:46;;;;;;;41.50;25.10;;;;;;;;;;5073382;28;20436;-68
2022/06/18 04:40:17;;;;;;;39.33;24.67;;;;;;;;;;5072497;28;20122;-68
2022/06/18 04:42:43;;;;;;;41.45;25.15;;;;;;;;;;5071045;28;20130;-68
2022/06/18 04:45:09;;;;;;;;;;;;;;;;;;5076348;28;20079;-68
2022/06/18 04:47:36;;;;;;;38.90;24.80;;;;;;;;;;5089988;28;20360;-68
2022/06/18 04:50:01;;;;;;;;;;;;;;;;;;5072513;28;20396;-68
2022/06/18 04:52:27;;;;;;;38.92;24.90;;;;;;;;;;5075640;28;19947;-68
2022/06/18 04:54:54;;;;;;;40.22;25.25;;;;;;;;;;5039880;28;20480;-69
2022/06/18 04:57:20;;;;;;;40.33;25.92;;;;;;;;;;5076458;28;20040;-69
2022/06/18 04:59:46;;;;;;;41.05;25.63;;;;;;;;;;5079909;28;20045;-68
2022/06/18 05:02:23;;;;;;;42.38;26.60;;;;;;;;;;5072449;28;20362;-69
2022/06/18 05:04:49;;;;;;;50.83;27.60;;;;;;;;;;5072174;28;20056;-68
2022/06/18 05:07:15;;;;;;;38.42;26.58;;;;;;;;;;5087843;28;22309;-69
2022/06/18 05:09:43;;;;;;;37.15;25.35;;;;;;;;;;5081064;28;20049;-69
2022/06/18 05:12:09;;;;;;;40.15;26.70;;;;;;;;;;5068774;28;20047;-68
2022/06/18 05:14:35;;;;;;;46.17;27.23;;;;;;;;;;5072642;28;20056;-68
2022/06/18 05:17:02;;;;;;;38.92;26.35;;;;;;;;;;5069559;28;20119;-68
2022/06/18 05:19:31;;;;;;;40.97;26.75;;;;;;;;;;5075188;28;20119;-69
2022/06/18 05:21:57;;;;;;;36.90;25.65;;;;;;;;;;5070749;28;20071;-69
2022/06/18 05:24:23;;;;;;;;;;;;;;;;;;5070887;28;20048;-68
2022/06/18 05:26:51;;;;;;;43.03;27.63;;;;;;;;;;5071074;28;20441;-70
2022/06/18 05:29:17;;;;;;;45.35;27.42;;;;;;;;;;5069861;28;20036;-68
2022/06/18 05:31:43;;;;;;;;;;;;;;;;;;5069891;28;20414;-68
2022/06/18 05:34:10;;;;;;;38.70;24.98;;;;;;;;;;5069276;28;19928;-68
2022/06/18 05:36:36;;;;;;;39.17;24.55;;;;;;;;;;5071454;28;20048;-69
2022/06/18 05:39:02;;;;;;;39.05;23.55;;;;;;;;;;5068499;28;20068;-68
2022/06/18 05:41:30;;;;;;;38.53;22.05;;;;;;;;;;5072437;28;20068;-69
2022/06/18 05:43:56;;;;;;;32.88;19.80;;;;;;;;;;5070265;28;20060;-70
2022/06/18 05:46:22;;;;;;;;;;;;;;;;;;5056697;28;20053;-68
2022/06/18 05:48:48;;;;;;;37.75;20.20;;;;;;;;;;5063339;28;20015;-68
2022/06/18 05:51:14;;;;;;;37.13;20.05;;;;;;;;;;5073361;28;20043;-70
2022/06/18 05:53:40;;;;;;;;;;;;;;;;;;5086117;28;20052;-70
2022/06/18 05:56:07;;;;;;;36.08;19.92;;;;;;;;;;5087546;28;19938;-68
2022/06/18 05:58:33;;;;;;;36.22;19.35;;;;;;;;;;5090119;28;20051;-69
2022/06/18 06:00:59;;;;;;;28.27;17.17;;;;;;;;;;5048965;28;20124;-69
2022/06/18 06:03:25;;;;;;;28.88;17.98;;;;;;;;;;5069901;28;20064;-69
2022/06/18 06:05:51;;;;;;;30.65;18.33;;;;;;;;;;5082887;28;20089;-68
2022/06/18 06:08:17;;;;;;;25.85;16.95;;;;;;;;;;5077886;28;20091;-68
2022/06/18 06:13:29;;;;;;;27.45;15.02;;;;;;;;;;5069135;28;20052;-69
2022/06/18 06:15:55;;;;;;;29.15;16.58;;;;;;;;;;5052447;28;20399;-69
2022/06/18 06:18:22;;;;;;;29.38;16.00;;;;;;;;;;5071997;28;20051;-69
2022/06/18 06:20:52;;;;;;;29.48;14.40;;;;;;;;;;5080165;28;20044;-69
2022/06/18 06:23:19;;;;;;;23.25;13.48;;;;;;;;;;5079688;28;20051;-69
2022/06/18 06:25:44;;;;;;;;;;;;;;;;;;5069286;28;20044;-69
2022/06/18 06:28:13;;;;;;;32.78;14.98;;;;;;;;;;5069004;28;19927;-68
2022/06/18 06:30:39;;;;;;;24.65;12.32;;;;;;;;;;5057320;28;20141;-69
2022/06/18 06:33:05;;;;;;;;;;;;;;;;;;5071097;28;20053;-70
2022/06/18 06:35:31;;;;;;;28.10;14.25;;;;;;;;;;5068702;28;19974;-69
2022/06/18 06:37:57;;;;;;;27.13;14.48;;;;;;;;;;5096365;28;20054;-69
2022/06/18 06:40:26;;;;;;;27.75;13.88;;;;;;;;;;5081288;28;20071;-69
2022/06/18 06:42:52;;;;;;;;;;;;;;;;;;5074436;28;20060;-75
2022/06/18 06:45:23;;;;;;;28.38;12.85;;;;;;;;;;5070960;28;19924;-73
2022/06/18 06:47:49;;;;;;;19.60;11.15;;;;;;;;;;5071996;28;20503;-73
2022/06/18 06:50:15;;;;;;;;;;;;;;;;;;5081432;28;20056;-73
2022/06/18 06:52:41;;;;;;;24.67;11.10;;;;;;;;;;5068851;28;19924;-74
2022/06/18 06:57:52;;;;;;;24.88;12.43;;;;;;;;;;5068480;28;20236;-73
2022/06/18 07:00:18;;;;;;;;;;;;;;;;;;5067379;28;20045;-74
2022/06/18 07:02:44;;;;;;;21.17;12.07;;;;;;;;;;5083024;28;19920;-74
2022/06/18 07:05:12;;;;;;;26.20;11.75;;;;;;;;;;5084779;28;20468;-73
2022/06/18 07:07:38;;;;;;;27.20;12.18;;;;;;;;;;5082211;28;20069;-70
2022/06/18 07:10:04;;;;;;;;;;;;;;;;;;5104439;28;20104;-71
2022/06/18 07:12:30;;;;;;;20.27;11.50;;;;;;;;;;5074143;28;20007;-71
2022/06/18 07:14:56;;;;;;;;;;;;;;;;;;5083633;28;20044;-72
2022/06/18 07:17:23;;;;;;;24.80;9.90;;;;;;;;;;5078594;28;20293;-72
2022/06/18 07:19:49;;;;;;;23.63;10.50;;;;;;;;;;5077162;28;20047;-72
2022/06/18 07:22:15;;;;;;;;;;;;;;;;;;5074491;28;20203;-72
2022/06/18 07:24:41;;;;;;;22.08;9.20;;;;;;;;;;5076364;28;20007;-72
2022/06/18 07:27:07;;;;;;;;;;;;;;;;;;5077954;28;20040;-73
2022/06/18 07:29:34;;;;;;;22.48;9.95;;;;;;;;;;5057950;28;20107;-72
2022/06/18 07:32:13;;;;;;;27.67;10.75;;;;;;;;;;5074857;28;20056;-73
2022/06/18 07:34:39;;;;;;;25.35;10.10;;;;;;;;;;5071372;28;20115;-73
2022/06/18 07:37:05;;;;;;;23.60;9.00;;;;;;;;;;5075149;28;20056;-73
2022/06/18 07:39:31;;;;;;;;;;;;;;;;;;5085359;28;20048;-69
2022/06/18 07:41:57;;;;;;;24.85;9.27;;;;;;;;;;5081090;28;19926;-69
2022/06/18 07:44:23;;;;;;;;;;;;;;;;;;5099684;28;20087;-69
2022/06/18 07:46:51;;;;;;;18.23;7.22;;;;;;;;;;5089367;28;19943;-68
2022/06/18 07:49:17;;;;;;;19.05;6.82;;;;;;;;;;5076639;28;20055;-68
2022/06/18 07:51:46;;;;;;;;;;;;;;;;;;5078552;28;20127;-69
2022/06/18 07:54:16;;;;;;;20.63;7.13;;;;;;;;;;5082378;28;20394;-68
2022/06/18 07:56:42;;;;;;;14.32;5.93;;;;;;;;;;5078572;28;20044;-69
2022/06/18 07:59:08;;;;;;;;;;;;;;;;;;5074985;28;20063;-69
2022/06/18 08:01:36;;;;;;;15.15;5.72;;;;;;;;;;5078274;28;20320;-72
2022/06/18 08:04:02;;;;;;;14.15;6.25;;;;;;;;;;5085154;28;20040;-71
2022/06/18 08:06:29;;;;;;;14.55;4.80;;;;;;;;;;5086109;28;20147;-68
2022/06/18 08:08:55;;;;;;;11.15;4.30;;;;;;;;;;5088773;28;20468;-67
2022/06/18 08:11:21;;;;;;;11.60;4.13;;;;;;;;;;5077875;28;20048;-69
2022/06/18 08:13:49;;;;;;;13.20;4.55;;;;;;;;;;5078745;28;20091;-70
2022/06/18 08:16:16;;;;;;;14.20;5.18;;;;;;;;;;5085454;28;20048;-69
2022/06/18 08:18:43;;;;;;;14.02;4.65;;;;;;;;;;5077921;28;20143;-71
2022/06/18 08:21:15;;;;;;;10.25;3.50;;;;;;;;;;5075359;28;20037;-70
2022/06/18 08:23:41;;;;;;;16.00;4.32;;;;;;;;;;5074732;28;20441;-69
2022/06/18 08:26:07;;;;;;;9.95;3.28;;;;;;;;;;5058933;28;20063;-70
2022/06/18 08:28:34;;;;;;;10.23;3.22;;;;;;;;;;5086540;28;20066;-70
2022/06/18 08:31:02;;;;;;;11.68;3.28;;;;;;;;;;5085334;28;20043;-69
2022/06/18 08:33:29;;;;;;;11.40;3.10;;;;;;;;;;5075703;28;20117;-69
2022/06/18 08:36:00;;;;;;;9.35;3.00;;;;;;;;;;5069925;28;20152;-70
2022/06/18 08:38:26;;;;;;;11.15;3.35;;;;;;;;;;5084214;28;20107;-71
2022/06/18 08:40:51;;;;;;;;;;;;;;;;;;5073681;28;20044;-69
2022/06/18 08:43:26;;;;;;;12.60;3.10;;;;;;;;;;5077208;28;19936;-71
2022/06/18 08:45:55;;;;;;;8.18;2.67;;;;;;;;;;5067533;28;20044;-69
2022/06/18 08:48:27;;;;;;;8.57;2.72;;;;;;;;;;5084810;28;20141;-70
2022/06/18 08:50:56;;;;;;;9.93;3.00;;;;;;;;;;5065388;28;20438;-69
2022/06/18 08:53:34;;;;;;;10.48;2.97;;;;;;;;;;5057064;28;20044;-70
2022/06/18 08:56:21;;;;;;;7.70;2.70;;;;;;;;;;5074083;28;20135;-70
2022/06/18 08:59:11;;;;;;;10.70;2.58;;;;;;;;;;5052012;28;20088;-76
2022/06/18 09:01:39;;;;;;;11.45;2.95;;;;;;;;;;5059499;28;20153;-75
2022/06/18 09:04:09;;;;;;;9.38;2.70;;;;;;;;;;5070750;28;20120;-74
2022/06/18 09:06:35;;;;;;;8.45;2.70;;;;;;;;;;5077921;28;20226;-75
2022/06/18 09:09:00;;;;;;;;;;;;;;;;;;5071887;28;20079;-76
2022/06/18 09:11:48;;;;;;;9.60;3.13;;;;;;;;;;5075530;28;19950;-75
2022/06/18 09:14:18;;;;;;;10.32;2.90;;;;;;;;;;5071273;28;20048;-75
2022/06/18 09:16:47;;;;;;;9.25;3.38;;;;;;;;;;5064449;28;20067;-74
2022/06/18 09:19:18;;;;;;;9.55;2.60;;;;;;;;;;5052784;28;20569;-76
2022/06/18 09:21:52;;;;;;;8.40;2.70;;;;;;;;;;5071360;28;20036;-73
2022/06/18 09:24:25;;;;;;;8.55;2.60;;;;;;;;;;5076114;28;20123;-72
2022/06/18 09:26:54;;;;;;;11.35;2.85;;;;;;;;;;5068139;28;20044;-74
2022/06/18 09:29:33;;;;;;;9.68;2.72;;;;;;;;;;5079737;28;20048;-73
2022/06/18 09:32:19;;;;;;;7.70;2.50;;;;;;;;;;5074609;28;20072;-75
2022/06/18 09:34:48;;;;;;;11.25;2.65;;;;;;;;;;5066588;28;20120;-75
2022/06/18 09:37:17;;;;;;;7.47;2.33;;;;;;;;;;5071512;28;20044;-75
2022/06/18 09:39:46;;;;;;;8.57;3.17;;;;;;;;;;5069606;28;20120;-74
2022/06/18 09:42:12;;;;;;;12.20;3.22;;;;;;;;;;5083839;28;20040;-80
2022/06/18 09:44:43;;;;;;;10.52;2.55;;;;;;;;;;5061793;28;20143;-80
2022/06/18 09:47:20;;;;;;;10.35;2.63;;;;;;;;;;5070289;28;20127;-74
2022/06/18 09:49:47;;;;;;;8.95;2.78;;;;;;;;;;5070635;28;20052;-75
2022/06/18 09:52:33;;;;;;;9.13;2.55;;;;;;;;;;5073307;28;20376;-76
2022/06/18 09:55:03;;;;;;;9.63;2.80;;;;;;;;;;5079370;28;20072;-85
2022/06/18 09:57:31;;;;;;;10.20;2.80;;;;;;;;;;5035843;28;20048;-79
2022/06/18 10:00:07;;;;;;;8.93;2.78;;;;;;;;;;5074885;28;20190;-75
2022/06/18 10:02:34;;;;;;;9.93;2.90;;;;;;;;;;5096099;28;20036;-76
2022/06/18 10:07:48;;;;;;;9.93;2.75;;;;;;;;;;5071917;28;20060;-72
2022/06/18 10:10:16;;;;;;;9.93;2.65;;;;;;;;;;5073780;28;20389;-71
2022/06/18 10:12:53;;;;;;;9.10;2.25;;;;;;;;;;5083830;28;20036;-71
2022/06/18 10:15:19;;;;;;;7.78;2.10;;;;;;;;;;5084413;28;20048;-72
2022/06/18 10:18:04;;;;;;;8.80;2.80;;;;;;;;;;5075790;28;20048;-75
2022/06/18 10:20:45;;;;;;;13.32;2.50;;;;;;;;;;5082220;28;20108;-71
2022/06/18 10:23:17;;;;;;;11.20;2.60;;;;;;;;;;5070048;28;20047;-72
2022/06/18 10:25:50;;;;;;;7.57;2.28;;;;;;;;;;5081395;28;20348;-74
2022/06/18 10:28:19;;;;;;;10.25;2.28;;;;;;;;;;5063541;28;20143;-71
2022/06/18 10:31:04;;;;;;;8.88;2.15;;;;;;;;;;5079317;28;20102;-73
2022/06/18 10:33:41;;;;;;;9.48;2.20;;;;;;;;;;5087524;28;20074;-72
2022/06/18 10:36:15;;;;;;;11.30;2.75;;;;;;;;;;5094437;28;20122;-72
2022/06/18 10:38:46;;;;;;;7.05;2.60;;;;;;;;;;5076740;28;20040;-72
2022/06/18 10:41:17;;;;;;;12.02;2.92;;;;;;;;;;5080309;28;20470;-73
2022/06/18 10:43:52;;;;;;;7.00;2.47;;;;;;;;;;5073193;28;20056;-74
2022/06/18 10:46:20;;;;;;;9.23;2.28;;;;;;;;;;5081379;28;20076;-73
2022/06/18 10:48:49;;;;;;;5.63;2.00;;;;;;;;;;5079416;28;20052;-72
2022/06/18 10:51:17;;;;;;;7.65;2.10;;;;;;;;;;5056141;28;20064;-73
2022/06/18 10:53:50;;;;;;;7.60;2.30;;;;;;;;;;5069804;28;20071;-74
2022/06/18 10:56:18;;;;;;;8.75;2.30;;;;;;;;;;5072524;28;20049;-74
2022/06/18 10:59:00;;;;;;;6.53;2.25;;;;;;;;;;5058991;28;20036;-75
2022/06/18 11:01:36;;;;;;;8.32;2.58;;;;;;;;;;5078802;28;20093;-74
2022/06/18 11:04:04;;;;;;;9.50;2.23;;;;;;;;;;5065201;28;20117;-74
2022/06/18 11:06:31;;;;;;;6.95;2.05;;;;;;;;;;5083118;28;20464;-72
2022/06/18 11:08:59;;;;;;;6.53;1.95;;;;;;;;;;5077126;28;20040;-73
2022/06/18 11:11:32;;;;;;;8.57;2.00;;;;;;;;;;5071822;28;20131;-72
2022/06/18 11:14:27;;;;;;;9.82;2.60;;;;;;;;;;5083707;28;20135;-73
2022/06/18 11:16:55;;;;;;;10.95;2.17;;;;;;;;;;5057574;28;20068;-73
2022/06/18 11:19:27;;;;;;;6.43;2.00;;;;;;;;;;5084850;28;20044;-73
2022/06/18 11:21:54;;;;;;;7.00;2.00;;;;;;;;;;5071384;28;20072;-73
2022/06/18 11:24:19;;;;;;;5.55;1.88;;;;;;;;;;5071166;28;20048;-73
2022/06/18 11:26:45;;;;;;;;;;;;;;;;;;5069993;28;20109;-61
2022/06/18 11:29:14;;;;;;;12.95;2.10;;;;;;;;;;5072287;28;19977;-67
2022/06/18 11:31:48;;;;;;;7.97;1.95;;;;;;;;;;5088966;28;20446;-67
2022/06/18 11:34:28;;;;;;;5.85;2.05;;;;;;;;;;5076641;28;20046;-64
2022/06/18 11:36:58;;;;;;;14.05;2.72;;;;;;;;;;5076852;28;20043;-62
2022/06/18 11:39:34;;;;;;;11.93;2.80;;;;;;;;;;5069801;28;20052;-62
2022/06/18 11:42:08;;;;;;;13.13;2.88;;;;;;;;;;5084283;28;20036;-64
2022/06/18 11:44:49;;;;;;;9.02;2.75;;;;;;;;;;5077839;28;20060;-63
2022/06/18 11:47:18;;;;;;;10.65;2.72;;;;;;;;;;5080352;28;20044;-66
2022/06/18 11:49:44;;;;;;;9.10;2.58;;;;;;;;;;5091765;28;20137;-62
2022/06/18 11:52:10;;;;;;;;;;;;;;;;;;5092855;28;20043;-65
2022/06/18 11:54:40;;;;;;;14.48;2.90;;;;;;;;;;5097256;28;20394;-62
2022/06/18 11:57:06;;;;;;;11.07;2.80;;;;;;;;;;5077218;28;20054;-74
2022/06/18 11:59:52;;;;;;;9.40;2.65;;;;;;;;;;5089863;28;20495;-77
2022/06/18 12:02:21;;;;;;;13.52;2.80;;;;;;;;;;5090494;28;21434;-68
2022/06/18 12:05:10;;;;;;;10.23;3.33;;;;;;;;;;5086665;28;20114;-86
2022/06/18 12:07:39;;;;;;;11.13;2.40;;;;;;;;;;5071023;28;20091;-62
2022/06/18 12:10:09;;;;;;;8.93;2.53;;;;;;;;;;5082519;28;20040;-61
2022/06/18 12:12:54;;;;;;;10.63;2.67;;;;;;;;;;5070509;28;20522;-61
2022/06/18 12:15:44;;;;;;;12.05;2.70;;;;;;;;;;5080315;28;20048;-62
2022/06/18 12:18:14;;;;;;;9.55;2.50;;;;;;;;;;5069762;28;20085;-61
2022/06/18 12:20:55;;;;;;;12.13;2.88;;;;;;;;;;5081558;28;20040;-62
2022/06/18 12:23:48;;;;;;;11.35;2.92;;;;;;;;;;5090431;28;20048;-62
2022/06/18 12:26:25;;;;;;;13.32;3.13;;;;;;;;;;5084042;28;20379;-62
2022/06/18 12:29:10;;;;;;;10.88;2.60;;;;;;;;;;5086115;28;20070;-63
2022/06/18 12:31:54;;;;;;;9.45;2.55;;;;;;;;;;5088050;28;20135;-64
2022/06/18 12:34:32;;;;;;;13.68;3.17;;;;;;;;;;5091819;28;20062;-63
2022/06/18 12:37:17;;;;;;;11.07;3.03;;;;;;;;;;5091132;28;20051;-63
2022/06/18 12:39:52;;;;;;;13.90;2.95;;;;;;;;;;5088940;28;20094;-62
2022/06/18 12:42:26;;;;;;;11.77;3.10;;;;;;;;;;5081315;28;20123;-62
2022/06/18 12:45:01;;;;;;;13.52;3.20;;;;;;;;;;5104597;28;20110;-64
2022/06/18 12:47:42;;;;;;;14.48;3.40;;;;;;;;;;5097577;28;20144;-64
2022/06/18 12:50:26;;;;;;;12.45;3.00;;;;;;;;;;5092697;28;21357;-64
2022/06/18 12:53:07;;;;;;;16.92;3.30;;;;;;;;;;5095603;28;20043;-65
2022/06/18 12:55:36;;;;;;;12.55;2.78;;;;;;;;;;5092363;28;20052;-65
2022/06/18 12:58:09;;;;;;;16.23;3.55;;;;;;;;;;5068984;28;20036;-65
2022/06/18 13:00:38;;;;;;;14.48;3.17;;;;;;;;;;5087041;28;21315;-62
2022/06/18 13:03:07;;;;;;;15.00;3.60;;;;;;;;;;5074026;28;20040;-66
2022/06/18 13:05:48;;;;;;;19.33;3.53;;;;;;;;;;5079748;28;20040;-64
2022/06/18 13:08:25;;;;;;;14.35;3.55;;;;;;;;;;5096612;28;20043;-63
2022/06/18 13:10:58;;;;;;;17.83;3.35;;;;;;;;;;5075768;28;20050;-65
2022/06/18 13:13:38;;;;;;;15.23;3.25;;;;;;;;;;5064849;28;20048;-72
2022/06/18 13:16:15;;;;;;;17.80;4.35;;;;;;;;;;5084644;28;20043;-64
2022/06/18 13:18:52;;;;;;;14.05;2.85;;;;;;;;;;5091200;28;20391;-64
2022/06/18 13:21:18;;;;;;;11.45;2.42;;;;;;;;;;5075340;28;20283;-64
2022/06/18 13:29:38;;;;;;;15.35;2.95;;;;;;;;;;5083667;28;20180;-65
2022/06/18 13:32:07;;;;;;;13.38;3.20;;;;;;;;;;5075845;28;20097;-64
2022/06/18 13:34:48;;;;;;;15.75;3.83;;;;;;;;;;5073323;28;20344;-62
2022/06/18 13:37:14;;;;;;;15.25;3.17;;;;;;;;;;5079413;28;20044;-64
2022/06/18 13:39:40;;;;;;;;;;;;;;;;;;5072226;28;20050;-65
2022/06/18 13:42:13;;;;;;;15.95;2.78;;;;;;;;;;5077951;28;20294;-64
2022/06/18 13:44:59;;;;;;;12.20;2.78;;;;;;;;;;5058657;28;20056;-65
2022/06/18 13:47:39;;;;;;;12.93;3.17;;;;;;;;;;5039903;28;20052;-64
2022/06/18 13:50:08;;;;;;;11.13;2.97;;;;;;;;;;5082181;28;20044;-63
2022/06/18 13:52:34;;;;;;;;;;;;;;;;;;5084621;28;20036;-63
2022/06/18 13:55:00;;;;;;;14.68;3.10;;;;;;;;;;5087964;28;19931;-64
2022/06/18 13:57:35;;;;;;;16.25;3.38;;;;;;;;;;5082349;28;20060;-64
2022/06/18 14:00:02;;;;;;;13.77;2.60;;;;;;;;;;5084525;28;20415;-66
2022/06/18 14:02:37;;;;;;;11.63;2.92;;;;;;;;;;5085488;28;20119;-63
2022/06/18 14:05:12;;;;;;;13.75;2.72;;;;;;;;;;5078091;28;20049;-66
2022/06/18 14:07:49;;;;;;;14.55;2.75;;;;;;;;;;5076963;28;20125;-62
2022/06/18 14:10:18;;;;;;;13.60;3.00;;;;;;;;;;5063400;28;20078;-63
2022/06/18 14:12:50;;;;;;;14.90;2.65;;;;;;;;;;5079328;28;20089;-63
2022/06/18 14:15:23;;;;;;;8.10;2.15;;;;;;;;;;5071543;28;20045;-64
2022/06/18 14:17:53;;;;;;;13.52;3.03;;;;;;;;;;5075492;28;20492;-64
2022/06/18 14:20:22;;;;;;;8.68;2.28;;;;;;;;;;5064098;28;20101;-63
2022/06/18 14:23:02;;;;;;;9.25;2.30;;;;;;;;;;5084989;28;20050;-63
2022/06/18 14:25:29;;;;;;;10.05;2.53;;;;;;;;;;5075222;28;20052;-63
2022/06/18 14:27:55;;;;;;;10.18;2.88;;;;;;;;;;5090464;28;20048;-63
2022/06/18 14:30:21;;;;;;;12.18;2.80;;;;;;;;;;5065708;28;20051;-64
2022/06/18 14:32:49;;;;;;;;;;;;;;;;;;5093782;28;20032;-63
2022/06/18 14:35:30;;;;;;;15.27;2.70;;;;;;;;;;5097022;28;19958;-63
2022/06/18 14:37:56;;;;;;;18.20;2.70;;;;;;;;;;5088204;28;20066;-63
2022/06/18 14:40:27;;;;;;;15.65;2.88;;;;;;;;;;5088578;28;20055;-65
2022/06/18 14:43:13;;;;;;;12.27;2.58;;;;;;;;;;5072464;28;20044;-65
2022/06/18 14:45:45;;;;;;;13.43;2.90;;;;;;;;;;5074416;28;20133;-66
2022/06/18 14:48:33;;;;;;;15.82;2.35;;;;;;;;;;5051776;28;20410;-65
2022/06/18 14:51:13;;;;;;;18.00;2.60;;;;;;;;;;5085095;28;20447;-65
2022/06/18 14:53:39;;;;;;;14.43;2.85;;;;;;;;;;5085719;28;20151;-64
2022/06/18 14:56:11;;;;;;;20.02;3.08;;;;;;;;;;5066621;28;20318;-63
2022/06/18 14:58:50;;;;;;;14.68;2.65;;;;;;;;;;5071555;28;20047;-64
2022/06/18 15:01:16;;;;;;;15.05;2.80;;;;;;;;;;5086807;28;20496;-65
2022/06/18 15:03:41;;;;;;;;;;;;;;;;;;5088837;28;20125;-65
2022/06/18 15:06:08;;;;;;;15.80;3.25;;;;;;;;;;5082239;28;20057;-65
2022/06/18 15:08:39;;;;;;;12.52;2.63;;;;;;;;;;5090669;28;20166;-73
2022/06/18 15:11:06;;;;;;;12.45;2.75;;;;;;;;;;5092727;28;20044;-69
2022/06/18 15:13:36;;;;;;;14.82;2.70;;;;;;;;;;5085847;28;20040;-63
2022/06/18 15:16:28;;;;;;;14.70;3.33;;;;;;;;;;5091245;28;20459;-64
2022/06/18 15:24:20;;;;;;;15.48;3.40;;;;;;;;;;5086951;28;20052;-67